createdAt,value
2023-04-08T00:01:35.507Z,100.00
2023-04-08T00:06:37.395Z,100.00
2023-04-08T00:11:39.819Z,100.00
2023-04-08T00:16:41.570Z,100.00
2023-04-08T00:21:43.244Z,100.00
2023-04-08T00:26:44.893Z,100.00
2023-04-08T00:31:46.656Z,100.00
2023-04-08T00:36:48.616Z,100.00
2023-04-08T00:41:50.443Z,100.00
2023-04-08T00:46:52.090Z,100.00
2023-04-08T00:51:55.315Z,100.00
2023-04-08T00:56:57.690Z,100.00
2023-04-08T01:02:08.614Z,100.00
2023-04-08T01:07:17.448Z,100.00
2023-04-08T01:12:27.228Z,100.00
2023-04-08T01:17:32.185Z,100.00
2023-04-08T01:22:55.423Z,100.00
2023-04-08T01:27:58.615Z,100.00
2023-04-08T01:33:02.552Z,100.00
2023-04-08T01:38:08.743Z,100.00
2023-04-08T01:43:14.859Z,100.00
2023-04-08T01:48:16.659Z,100.00
2023-04-08T01:53:18.733Z,100.00
2023-04-08T01:58:22.057Z,100.00
2023-04-08T02:03:25.780Z,100.00
2023-04-08T02:08:27.556Z,100.00
2023-04-08T02:13:32.273Z,100.00
2023-04-08T02:18:36.515Z,100.00
2023-04-08T02:23:40.949Z,100.00
2023-04-08T02:28:43.161Z,100.00
2023-04-08T02:33:46.064Z,100.00
2023-04-08T02:38:51.331Z,100.00
2023-04-08T02:43:55.539Z,100.00
2023-04-08T02:48:57.234Z,100.00
2023-04-08T02:53:58.860Z,100.00
2023-04-08T02:59:00.854Z,100.00
2023-04-08T03:04:02.629Z,100.00
2023-04-08T03:09:05.889Z,100.00
2023-04-08T03:14:07.735Z,100.00
2023-04-08T03:19:09.372Z,100.00
2023-04-08T03:24:11.189Z,100.00
2023-04-08T03:29:12.974Z,100.00
2023-04-08T03:34:14.825Z,100.00
2023-04-08T03:39:16.828Z,100.00
2023-04-08T03:44:18.464Z,100.00
2023-04-08T03:49:20.292Z,100.00
2023-04-08T03:54:21.967Z,100.00
2023-04-08T03:59:23.655Z,100.00
2023-04-08T04:04:25.485Z,100.00
2023-04-08T04:09:27.237Z,100.00
2023-04-08T04:14:28.852Z,100.00
2023-04-08T04:19:31.791Z,100.00
2023-04-08T04:24:33.434Z,100.00
2023-04-08T04:29:35.031Z,100.00
2023-04-08T04:34:36.730Z,100.00
2023-04-08T04:39:38.362Z,100.00
2023-04-08T04:44:40.178Z,100.00
2023-04-08T04:49:42.102Z,100.00
2023-04-08T04:54:47.145Z,100.00
2023-04-08T04:59:49.201Z,100.00
2023-04-08T05:04:53.757Z,100.00
2023-04-08T05:09:55.782Z,100.00
2023-04-08T05:15:00.752Z,100.00
2023-04-08T05:20:03.118Z,100.00
2023-04-08T05:25:06.679Z,100.00
2023-04-08T05:30:11.948Z,100.00
2023-04-08T05:35:14.396Z,100.00
2023-04-08T05:40:16.777Z,100.00
2023-04-08T05:45:19.459Z,100.00
2023-04-08T05:50:21.305Z,100.00
2023-04-08T05:55:23.242Z,100.00
2023-04-08T06:00:25.406Z,100.00
2023-04-08T06:05:27.314Z,100.00
2023-04-08T06:10:29.266Z,100.00
2023-04-08T06:15:32.954Z,100.00
2023-04-08T06:20:36.455Z,100.00
2023-04-08T06:25:38.515Z,100.00
2023-04-08T06:30:40.358Z,100.00
2023-04-08T06:35:42.249Z,100.00
2023-04-08T06:40:43.908Z,100.00
2023-04-08T06:45:46.096Z,100.00
2023-04-08T06:50:47.777Z,100.00
2023-04-08T06:55:49.465Z,100.00
2023-04-08T07:00:51.197Z,100.00
2023-04-08T07:05:53.386Z,100.00
2023-04-08T07:10:55.064Z,100.00
2023-04-08T07:15:56.717Z,100.00
2023-04-08T07:20:58.458Z,100.00
2023-04-08T07:26:05.236Z,100.00
2023-04-08T07:31:17.420Z,100.00
2023-04-08T07:36:19.247Z,100.00
2023-04-08T07:41:21.310Z,100.00
2023-04-08T07:46:23.011Z,100.00
2023-04-08T07:51:24.674Z,100.00
2023-04-08T07:56:26.349Z,100.00
2023-04-08T08:01:31.255Z,100.00
2023-04-08T08:06:33.297Z,100.00
2023-04-08T08:11:35.237Z,100.00
2023-04-08T08:16:38.703Z,100.00
2023-04-08T08:21:40.553Z,100.00
2023-04-08T08:26:42.732Z,100.00
2023-04-08T08:31:44.431Z,98.50
2023-04-08T08:36:46.256Z,97.73
2023-04-08T08:41:47.981Z,96.06
2023-04-08T08:46:49.817Z,97.52
2023-04-08T08:51:54.327Z,95.61
2023-04-08T08:56:55.961Z,93.98
2023-04-08T09:01:57.765Z,91.88
2023-04-08T09:07:10.740Z,88.27
2023-04-08T09:12:14.028Z,90.08
2023-04-08T09:17:17.194Z,85.54
2023-04-08T09:22:18.858Z,86.63
2023-04-08T09:27:36.588Z,87.17
2023-04-08T09:32:49.248Z,88.93
2023-04-08T09:37:51.362Z,88.72
2023-04-08T09:42:56.245Z,86.28
2023-04-08T09:48:13.466Z,85.32
2023-04-08T09:53:26.330Z,84.26
2023-04-08T09:58:58.846Z,83.75
2023-04-08T10:04:01.923Z,84.59
2023-04-08T10:09:04.367Z,86.57
2023-04-08T10:14:06.114Z,83.38
2023-04-08T10:19:37.368Z,85.94
2023-04-08T10:24:38.984Z,82.81
2023-04-08T10:29:40.620Z,83.61
2023-04-08T10:34:52.748Z,79.52
2023-04-08T10:39:54.481Z,80.17
2023-04-08T10:45:00.749Z,80.13
2023-04-08T10:50:13.171Z,78.53
2023-04-08T10:55:15.183Z,80.49
2023-04-08T11:00:32.632Z,77.08
2023-04-08T11:05:36.812Z,75.78
2023-04-08T11:10:39.094Z,77.15
2023-04-08T11:15:42.692Z,75.53
2023-04-08T11:20:45.138Z,74.79
2023-04-08T11:25:48.158Z,77.36
2023-04-08T11:30:50.387Z,79.15
2023-04-08T11:35:52.302Z,79.77
2023-04-08T11:41:01.263Z,82.70
2023-04-08T11:46:12.662Z,85.19
2023-04-08T11:51:14.915Z,84.96
2023-04-08T11:56:21.538Z,82.46
2023-04-08T12:01:23.231Z,83.26
2023-04-08T12:06:25.169Z,81.74
2023-04-08T12:11:26.944Z,80.77
2023-04-08T12:16:28.787Z,81.86
2023-04-08T12:21:33.980Z,81.16
2023-04-08T12:26:35.742Z,81.45
2023-04-08T12:31:37.500Z,84.62
2023-04-08T12:36:41.344Z,85.95
2023-04-08T12:41:43.541Z,88.06
2023-04-08T12:46:45.421Z,89.97
2023-04-08T12:51:47.113Z,87.92
2023-04-08T12:56:48.940Z,87.53
2023-04-08T13:01:50.769Z,89.41
2023-04-08T13:06:52.730Z,88.76
2023-04-08T13:11:54.448Z,89.34
2023-04-08T13:16:57.380Z,89.98
2023-04-08T13:21:59.810Z,88.88
2023-04-08T13:27:02.945Z,88.47
2023-04-08T13:32:05.258Z,87.72
2023-04-08T13:37:07.592Z,86.77
2023-04-08T13:42:09.863Z,85.23
2023-04-08T13:47:12.530Z,84.77
2023-04-08T13:52:14.336Z,84.37
2023-04-08T13:57:16.338Z,83.68
2023-04-08T14:02:18.417Z,82.12
2023-04-08T14:07:20.229Z,81.69
2023-04-08T14:12:21.920Z,79.65
2023-04-08T14:17:23.774Z,81.20
2023-04-08T14:22:25.470Z,80.90
2023-04-08T14:27:27.912Z,82.24
2023-04-08T14:32:29.726Z,82.69
2023-04-08T14:37:31.505Z,82.02
2023-04-08T14:42:33.193Z,81.94
2023-04-08T14:47:34.947Z,81.83
2023-04-08T14:52:36.660Z,81.41
2023-04-08T14:57:38.358Z,82.51
2023-04-08T15:02:40.244Z,82.78
2023-04-08T15:07:43.016Z,81.01
2023-04-08T15:12:44.737Z,80.76
2023-04-08T15:17:46.553Z,80.97
2023-04-08T15:22:48.403Z,80.63
2023-04-08T15:27:50.132Z,79.57
2023-04-08T15:32:52.597Z,79.68
2023-04-08T15:37:54.738Z,80.37
2023-04-08T15:42:56.689Z,78.57
2023-04-08T15:47:59.584Z,79.82
2023-04-08T15:53:01.426Z,79.65
2023-04-08T15:58:03.126Z,78.44
2023-04-08T16:03:05.973Z,78.45
2023-04-08T16:08:08.016Z,75.57
2023-04-08T16:13:09.724Z,77.15
2023-04-08T16:18:11.570Z,76.95
2023-04-08T16:23:15.620Z,77.52
2023-04-08T16:28:18.178Z,77.85
2023-04-08T16:33:23.938Z,79.03
2023-04-08T16:38:26.670Z,78.76
2023-04-08T16:43:29.386Z,79.07
2023-04-08T16:48:31.280Z,80.77
2023-04-08T16:53:33.175Z,81.35
2023-04-08T16:58:34.877Z,81.37
2023-04-08T17:03:36.937Z,81.77
2023-04-08T17:08:38.874Z,81.89
2023-04-08T17:13:42.671Z,81.83
2023-04-08T17:18:45.827Z,82.77
2023-04-08T17:23:47.672Z,83.86
2023-04-08T17:28:49.926Z,83.35
2023-04-08T17:33:51.859Z,82.92
2023-04-08T17:38:53.843Z,82.92
2023-04-08T17:43:55.724Z,83.55
2023-04-08T17:48:57.712Z,82.84
2023-04-08T17:53:59.461Z,84.01
2023-04-08T17:59:01.930Z,84.62
2023-04-08T18:04:06.867Z,85.81
2023-04-08T18:09:08.902Z,86.40
2023-04-08T18:14:10.649Z,86.34
2023-04-08T18:19:13.434Z,86.98
2023-04-08T18:24:15.486Z,86.98
2023-04-08T18:29:18.040Z,86.00
2023-04-08T18:34:20.892Z,85.98
2023-04-08T18:39:22.752Z,86.66
2023-04-08T18:44:24.660Z,86.73
2023-04-08T18:49:26.398Z,88.14
2023-04-08T18:54:28.254Z,86.85
2023-04-08T18:59:30.420Z,87.39
2023-04-08T19:04:33.473Z,87.20
2023-04-08T19:09:35.337Z,87.77
2023-04-08T19:14:37.477Z,88.67
2023-04-08T19:19:39.245Z,88.35
2023-04-08T19:24:40.859Z,89.00
2023-04-08T19:29:42.821Z,88.38
2023-04-08T19:34:44.467Z,88.27
2023-04-08T19:39:46.264Z,89.31
2023-04-08T19:44:48.758Z,90.70
2023-04-08T19:49:50.623Z,91.89
2023-04-08T19:54:52.378Z,91.95
2023-04-08T19:59:54.880Z,92.86
2023-04-08T20:04:57.291Z,92.59
2023-04-08T20:09:59.034Z,95.14
2023-04-08T20:15:01.176Z,96.55
2023-04-08T20:20:05.243Z,97.30
2023-04-08T20:25:07.168Z,97.42
2023-04-08T20:30:09.918Z,97.48
2023-04-08T20:35:11.846Z,97.63
2023-04-08T20:40:13.858Z,98.77
2023-04-08T20:45:16.459Z,99.02
2023-04-08T20:50:18.175Z,100.00
2023-04-08T20:55:19.840Z,99.30
2023-04-08T21:00:21.567Z,100.00
2023-04-08T21:05:23.437Z,100.00
2023-04-08T21:10:25.251Z,100.00
2023-04-08T21:15:27.532Z,100.00
2023-04-08T21:20:29.194Z,100.00
2023-04-08T21:25:31.501Z,100.00
2023-04-08T21:30:33.128Z,100.00
2023-04-08T21:35:34.893Z,100.00
2023-04-08T21:40:36.577Z,100.00
2023-04-08T21:45:38.267Z,100.00
2023-04-08T21:50:41.582Z,100.00
2023-04-08T21:55:43.318Z,100.00
2023-04-08T22:00:45.211Z,100.00
2023-04-08T22:05:46.930Z,100.00
2023-04-08T22:10:48.839Z,100.00
2023-04-08T22:15:50.703Z,100.00
2023-04-08T22:20:52.456Z,100.00
2023-04-08T22:25:54.263Z,100.00
2023-04-08T22:30:56.235Z,100.00
2023-04-08T22:35:58.023Z,100.00
2023-04-08T22:40:59.728Z,100.00
2023-04-08T22:46:01.444Z,100.00
2023-04-08T22:51:03.385Z,100.00
2023-04-08T22:56:05.336Z,100.00
2023-04-08T23:01:17.248Z,100.00
2023-04-08T23:06:19.179Z,100.00
2023-04-08T23:11:20.914Z,100.00
2023-04-08T23:16:22.713Z,100.00
2023-04-08T23:21:24.535Z,100.00
2023-04-08T23:26:26.215Z,100.00
2023-04-08T23:31:27.979Z,100.00
2023-04-08T23:36:29.754Z,100.00
2023-04-08T23:41:31.438Z,100.00
2023-04-08T23:46:33.277Z,100.00
2023-04-08T23:51:38.738Z,100.00
2023-04-08T23:56:41.630Z,100.00
